Time;durP1;ratioP1;P1;durP2;ratioP2;P2;SDS_P1;SDS_P2;PMS_P1;PMS_P2;Temp;Humidity;BMP_temperature;BMP_pressure;BME280_temperature;BME280_humidity;BME280_pressure;Samples;Min_cycle;Max_cycle;Signal;HPM_P1;HPM_P2
2022/06/06 02:33:43;;;;;;;;;;;19.10;72.20;;;;;;4750062;30;20321;-73
2022/06/06 02:36:11;;;;;;;;;;;19.10;72.10;;;;;;4754413;30;20053;-72
2022/06/06 02:38:37;;;;;;;;;;;19.10;72.00;;;;;;4754457;30;20258;-75
2022/06/06 02:41:09;;;;;;;;;;;19.10;72.00;;;;;;4753901;30;19990;-74
2022/06/06 02:43:36;;;;;;;;;;;19.10;72.00;;;;;;4738673;30;19937;-74
2022/06/06 02:46:03;;;;;;;;;;;19.10;72.00;;;;;;4754197;30;19930;-76
2022/06/06 02:48:30;;;;;;;;;;;19.10;71.90;;;;;;4752132;30;20011;-74
2022/06/06 02:50:56;;;;;;;;;;;19.10;71.90;;;;;;4754994;30;20250;-78
2022/06/06 02:53:22;;;;;;;;;;;19.10;72.00;;;;;;4755026;30;19926;-75
2022/06/06 02:55:50;;;;;;;;;;;19.10;72.00;;;;;;4755191;30;20364;-77
2022/06/06 02:58:15;;;;;;;;;;;19.10;72.10;;;;;;4724451;30;19926;-72
2022/06/06 03:00:43;;;;;;;;;;;19.10;72.40;;;;;;4739207;30;20327;-73
2022/06/06 03:03:09;;;;;;;;;;;19.10;72.40;;;;;;4753664;30;20013;-75
2022/06/06 03:05:41;;;;;;;;;;;19.10;72.50;;;;;;4734656;30;19937;-75
2022/06/06 03:08:07;;;;;;;;;;;19.10;72.50;;;;;;4753456;30;19934;-73
2022/06/06 03:10:37;;;;;;;;;;;19.10;72.50;;;;;;4753932;30;19983;-73
2022/06/06 03:13:33;;;;;;;;;;;19.10;72.50;;;;;;4738695;30;19950;-73
2022/06/06 03:22:07;;;;;;;;;;;19.10;72.70;;;;;;4735961;30;19926;-74
2022/06/06 03:24:36;;;;;;;;;;;19.10;72.70;;;;;;4736714;30;20299;-73
2022/06/06 03:27:25;;;;;;;;;;;19.10;72.80;;;;;;4739785;30;20258;-74
2022/06/06 03:30:13;;;;;;;;;;;19.10;72.80;;;;;;4748910;30;20308;-76
2022/06/06 03:32:39;;;;;;;;;;;19.10;72.80;;;;;;4725393;30;19927;-75
2022/06/06 03:35:05;;;;;;;;;;;19.10;72.70;;;;;;4721612;30;19927;-76
2022/06/06 03:37:42;;;;;;;;;;;19.10;72.70;;;;;;4736625;30;19937;-74
2022/06/06 03:40:17;;;;;;;;;;;19.10;72.80;;;;;;4721255;30;20306;-75
2022/06/06 03:42:59;;;;;;;;;;;19.10;72.80;;;;;;4737498;30;19934;-75
2022/06/06 03:45:25;;;;;;;;;;;19.10;72.80;;;;;;4724359;30;19957;-74
2022/06/06 03:48:03;;;;;;;;;;;19.10;72.70;;;;;;4724884;30;19930;-73
2022/06/06 03:50:47;;;;;;;;;;;19.10;72.80;;;;;;4724434;30;19988;-75
2022/06/06 03:53:20;;;;;;;;;;;19.10;72.80;;;;;;4739728;30;19992;-74
2022/06/06 03:55:55;;;;;;;;;;;19.10;72.80;;;;;;4724290;30;19933;-79
2022/06/06 03:58:22;;;;;;;;;;;19.10;72.80;;;;;;4739930;30;19981;-74
2022/06/06 04:00:48;;;;;;;;;;;19.10;72.90;;;;;;4739829;30;19927;-73
2022/06/06 04:03:15;;;;;;;;;;;19.10;72.90;;;;;;4724164;30;20313;-74
2022/06/06 04:05:41;;;;;;;;;;;19.10;72.90;;;;;;4724906;30;20297;-74
2022/06/06 04:08:11;;;;;;;;;;;19.10;72.90;;;;;;4739592;30;19926;-73
2022/06/06 04:10:37;;;;;;;;;;;19.10;72.90;;;;;;4739578;30;19926;-75
2022/06/06 04:13:32;;;;;;;;;;;19.10;72.90;;;;;;4723922;30;19930;-75
2022/06/06 04:16:07;;;;;;;;;;;19.10;72.90;;;;;;4659690;30;19927;-75
2022/06/06 04:18:49;;;;;;;;;;;19.10;72.90;;;;;;4721748;30;19927;-76
2022/06/06 04:21:26;;;;;;;;;;;19.10;72.90;;;;;;4722429;30;19926;-76
2022/06/06 04:23:51;;;;;;;;;;;19.10;72.90;;;;;;4723471;30;20029;-73
2022/06/06 04:26:35;;;;;;;;;;;19.00;72.90;;;;;;4739368;30;20032;-74
2022/06/06 04:29:05;;;;;;;;;;;19.10;72.90;;;;;;4724454;30;20289;-74
2022/06/06 04:31:30;;;;;;;;;;;19.10;73.00;;;;;;4723872;30;19934;-75
2022/06/06 04:33:56;;;;;;;;;;;19.00;72.90;;;;;;4754271;30;19926;-77
2022/06/06 04:36:28;;;;;;;;;;;19.10;73.00;;;;;;4741300;30;19934;-77
2022/06/06 04:39:03;;;;;;;;;;;19.10;72.90;;;;;;4740198;30;19937;-76
2022/06/06 04:41:42;;;;;;;;;;;19.00;72.80;;;;;;4755871;30;20358;-77
2022/06/06 04:44:25;;;;;;;;;;;19.10;72.90;;;;;;4740641;30;20324;-76
2022/06/06 04:47:17;;;;;;;;;;;19.10;72.80;;;;;;4740052;30;20342;-77
2022/06/06 04:49:46;;;;;;;;;;;19.20;72.80;;;;;;4719787;30;19926;-76
2022/06/06 04:52:15;;;;;;;;;;;19.10;72.80;;;;;;4739971;30;20322;-76
2022/06/06 04:54:56;;;;;;;;;;;19.10;72.80;;;;;;4725488;30;19922;-76
2022/06/06 04:57:23;;;;;;;;;;;19.10;72.80;;;;;;4725902;30;20009;-75
2022/06/06 04:59:50;;;;;;;;;;;19.10;72.90;;;;;;4755951;30;19937;-76
2022/06/06 05:02:16;;;;;;;;;;;19.10;72.90;;;;;;4755324;30;19930;-79
2022/06/06 05:04:41;;;;;;;;;;;19.10;72.90;;;;;;4753291;30;19926;-76
2022/06/06 05:07:22;;;;;;;;;;;19.10;72.90;;;;;;4739244;30;19937;-76
2022/06/06 05:09:57;;;;;;;;;;;19.10;72.70;;;;;;4755256;30;20360;-77
2022/06/06 05:12:23;;;;;;;;;;;19.00;72.40;;;;;;4739710;30;19930;-75
2022/06/06 05:14:57;;;;;;;;;;;19.00;72.50;;;;;;4755378;30;20036;-77
2022/06/06 05:17:23;;;;;;;;;;;18.80;72.50;;;;;;4755817;30;19946;-77
2022/06/06 05:19:58;;;;;;;;;;;18.70;72.70;;;;;;4755626;30;19934;-76
2022/06/06 05:22:42;;;;;;;;;;;18.60;72.90;;;;;;4755627;30;20398;-72
2022/06/06 05:25:17;;;;;;;;;;;18.60;72.90;;;;;;4739907;30;20347;-76
2022/06/06 05:27:55;;;;;;;;;;;18.50;73.40;;;;;;4755560;30;20021;-78
2022/06/06 05:30:31;;;;;;;;;;;18.50;73.40;;;;;;4755348;30;19926;-77
2022/06/06 05:32:59;;;;;;;;;;;18.40;74.40;;;;;;4754837;30;20292;-76
2022/06/06 05:35:25;;;;;;;;;;;18.40;73.90;;;;;;4725077;30;19973;-76
2022/06/06 05:37:51;;;;;;;;;;;18.50;74.00;;;;;;4754849;30;19973;-76
2022/06/06 05:40:34;;;;;;;;;;;18.40;73.90;;;;;;4739627;30;20389;-75
2022/06/06 05:43:13;;;;;;;;;;;18.50;74.00;;;;;;4745639;30;19934;-76
2022/06/06 05:45:49;;;;;;;;;;;18.50;74.00;;;;;;4739352;30;19926;-74
2022/06/06 05:48:18;;;;;;;;;;;18.60;74.10;;;;;;4754652;30;19948;-75
2022/06/06 05:51:13;;;;;;;;;;;18.60;74.30;;;;;;4754230;30;19952;-76
2022/06/06 05:53:41;;;;;;;;;;;18.60;74.20;;;;;;4723896;30;20308;-76
2022/06/06 05:56:19;;;;;;;;;;;18.70;74.50;;;;;;4755168;30;19926;-75
2022/06/06 05:58:56;;;;;;;;;;;18.70;74.20;;;;;;4739260;30;20012;-75
2022/06/06 06:01:41;;;;;;;;;;;18.70;74.20;;;;;;4740533;30;19930;-75
2022/06/06 06:04:33;;;;;;;;;;;18.80;74.30;;;;;;4739747;30;19926;-77
2022/06/06 06:07:10;;;;;;;;;;;18.80;74.30;;;;;;4738942;30;20407;-76
2022/06/06 06:09:42;;;;;;;;;;;18.80;74.30;;;;;;4732615;30;19957;-76
2022/06/06 06:12:13;;;;;;;;;;;18.80;74.40;;;;;;4742060;30;20029;-73
2022/06/06 06:15:10;;;;;;;;;;;18.80;74.90;;;;;;4742106;30;19930;-73
2022/06/06 06:17:37;;;;;;;;;;;18.80;74.40;;;;;;4718946;30;19934;-75
2022/06/06 06:20:11;;;;;;;;;;;18.90;74.30;;;;;;4739261;30;19930;-73
2022/06/06 06:23:00;;;;;;;;;;;18.90;74.50;;;;;;4755277;30;20053;-73
2022/06/06 06:25:26;;;;;;;;;;;18.90;74.70;;;;;;4729360;30;20020;-72
2022/06/06 06:27:56;;;;;;;;;;;18.90;74.80;;;;;;4722779;30;19928;-73
2022/06/06 06:30:21;;;;;;;;;;;18.90;74.60;;;;;;4737454;30;19926;-74
2022/06/06 06:33:08;;;;;;;;;;;18.90;74.60;;;;;;4737406;30;19926;-75
2022/06/06 06:35:52;;;;;;;;;;;19.00;74.50;;;;;;4735954;30;20265;-75
2022/06/06 06:38:34;;;;;;;;;;;18.90;74.40;;;;;;4747011;30;19926;-76
2022/06/06 06:41:08;;;;;;;;;;;18.90;74.30;;;;;;4740822;30;19973;-75
2022/06/06 06:43:46;;;;;;;;;;;18.90;74.20;;;;;;4745142;30;20289;-75
2022/06/06 06:46:33;;;;;;;;;;;18.90;74.30;;;;;;4742864;30;20007;-74
2022/06/06 06:49:19;;;;;;;;;;;18.90;74.10;;;;;;4742270;30;19938;-75
2022/06/06 06:52:08;;;;;;;;;;;18.90;74.10;;;;;;4738466;30;19926;-75
2022/06/06 06:54:36;;;;;;;;;;;18.90;73.90;;;;;;4754048;30;19972;-76
2022/06/06 06:57:07;;;;;;;;;;;18.90;74.10;;;;;;4752572;30;20353;-76
2022/06/06 06:59:33;;;;;;;;;;;18.90;74.50;;;;;;4754474;30;19930;-77
2022/06/06 07:10:52;;;;;;;;;;;18.80;73.20;;;;;;4754654;30;20354;-76
2022/06/06 07:13:24;;;;;;;;;;;18.70;73.00;;;;;;4753683;30;19926;-76
2022/06/06 07:16:13;;;;;;;;;;;18.70;72.90;;;;;;4753872;30;19930;-75
2022/06/06 07:18:39;;;;;;;;;;;18.70;72.80;;;;;;4745556;30;19926;-76
2022/06/06 07:21:06;;;;;;;;;;;18.70;72.80;;;;;;4741052;30;19983;-76
2022/06/06 07:23:33;;;;;;;;;;;18.70;72.80;;;;;;4724866;30;19926;-74
2022/06/06 07:25:59;;;;;;;;;;;18.70;72.80;;;;;;4757596;30;19954;-74
2022/06/06 07:28:25;;;;;;;;;;;18.70;72.80;;;;;;4742180;30;19926;-73
2022/06/06 07:31:09;;;;;;;;;;;18.70;72.90;;;;;;4758313;30;19999;-74
2022/06/06 07:33:53;;;;;;;;;;;18.80;73.00;;;;;;4750095;30;19960;-75
2022/06/06 07:36:26;;;;;;;;;;;18.80;73.00;;;;;;4757373;30;19926;-74
2022/06/06 07:39:02;;;;;;;;;;;18.80;73.00;;;;;;4757392;30;19937;-74
2022/06/06 07:41:34;;;;;;;;;;;18.80;73.00;;;;;;4757925;30;19926;-74
2022/06/06 07:44:05;;;;;;;;;;;18.90;73.00;;;;;;4757644;30;19926;-74
2022/06/06 07:46:55;;;;;;;;;;;18.90;72.90;;;;;;4741570;30;19963;-75
2022/06/06 07:49:24;;;;;;;;;;;18.90;72.80;;;;;;4724617;30;19926;-74
2022/06/06 07:51:50;;;;;;;;;;;18.90;72.80;;;;;;4756941;30;19925;-74
2022/06/06 07:54:33;;;;;;;;;;;18.90;72.70;;;;;;4757266;30;19926;-74
2022/06/06 07:57:02;;;;;;;;;;;18.90;72.60;;;;;;4741497;30;19926;-74
2022/06/06 07:59:52;;;;;;;;;;;18.90;72.50;;;;;;4757242;30;19995;-75
2022/06/06 08:02:54;;;;;;;;;;;18.90;72.40;;;;;;4741692;30;19937;-74
2022/06/06 08:05:31;;;;;;;;;;;18.90;72.30;;;;;;4703516;30;19978;-75
2022/06/06 08:08:23;;;;;;;;;;;18.90;72.30;;;;;;4736909;30;19926;-75
2022/06/06 08:10:49;;;;;;;;;;;18.90;72.20;;;;;;4770785;30;20009;-75
2022/06/06 08:13:26;;;;;;;;;;;18.90;72.10;;;;;;4759383;30;20013;-75
2022/06/06 08:15:55;;;;;;;;;;;18.90;72.00;;;;;;4757135;30;19926;-75
2022/06/06 08:18:21;;;;;;;;;;;18.90;71.90;;;;;;4756851;30;19969;-75
2022/06/06 08:20:58;;;;;;;;;;;18.80;71.80;;;;;;4756547;30;20302;-76
2022/06/06 08:23:24;;;;;;;;;;;18.80;71.70;;;;;;4749559;30;19927;-75
2022/06/06 08:25:51;;;;;;;;;;;18.80;71.60;;;;;;4739026;30;19962;-75
2022/06/06 08:28:17;;;;;;;;;;;18.80;71.50;;;;;;4752583;30;19978;-76
2022/06/06 08:30:44;;;;;;;;;;;18.80;71.40;;;;;;4756894;30;20296;-76
2022/06/06 08:33:10;;;;;;;;;;;18.70;71.30;;;;;;4756370;30;19926;-75
2022/06/06 08:35:52;;;;;;;;;;;18.80;71.30;;;;;;4741214;30;19956;-77
2022/06/06 08:38:24;;;;;;;;;;;18.70;71.20;;;;;;4739274;30;19937;-75
2022/06/06 08:40:55;;;;;;;;;;;18.70;71.10;;;;;;4756721;30;20016;-75
2022/06/06 08:43:39;;;;;;;;;;;18.70;71.00;;;;;;4756550;30;19970;-74
2022/06/06 08:46:05;;;;;;;;;;;18.70;71.00;;;;;;4756705;30;19995;-75
2022/06/06 08:48:30;;;;;;;;;;;18.60;70.90;;;;;;4756403;30;19926;-74
2022/06/06 08:50:59;;;;;;;;;;;18.60;70.90;;;;;;4752453;30;19977;-73
2022/06/06 08:53:36;;;;;;;;;;;18.60;70.90;;;;;;4752316;30;19926;-76
2022/06/06 08:56:34;;;;;;;;;;;18.60;70.80;;;;;;4743706;30;19937;-75
2022/06/06 08:59:18;;;;;;;;;;;18.60;70.70;;;;;;4721556;30;20025;-75
2022/06/06 09:01:58;;;;;;;;;;;18.60;70.70;;;;;;4756333;30;19926;-74
2022/06/06 09:04:27;;;;;;;;;;;18.60;70.70;;;;;;4740471;30;19926;-74
2022/06/06 09:07:09;;;;;;;;;;;18.60;70.60;;;;;;4756306;30;20368;-76
2022/06/06 09:09:44;;;;;;;;;;;18.60;70.60;;;;;;4756206;30;20338;-76
2022/06/06 09:12:29;;;;;;;;;;;18.50;70.50;;;;;;4755380;30;19969;-74
2022/06/06 09:14:57;;;;;;;;;;;18.50;70.60;;;;;;4740492;30;19926;-73
2022/06/06 09:17:27;;;;;;;;;;;18.50;70.50;;;;;;4743279;30;19925;-76
2022/06/06 09:19:58;;;;;;;;;;;18.50;70.50;;;;;;4768954;30;19947;-75
2022/06/06 09:22:43;;;;;;;;;;;18.50;70.50;;;;;;4755670;30;19930;-75
2022/06/06 09:25:21;;;;;;;;;;;18.50;70.50;;;;;;4755632;30;19926;-74
2022/06/06 09:28:06;;;;;;;;;;;18.50;70.50;;;;;;4756378;30;19992;-74
2022/06/06 09:30:32;;;;;;;;;;;18.50;70.50;;;;;;4755820;30;20310;-75
2022/06/06 09:33:16;;;;;;;;;;;18.50;70.70;;;;;;4755443;30;19926;-74
2022/06/06 09:35:51;;;;;;;;;;;18.50;70.70;;;;;;4740609;30;19926;-74
2022/06/06 09:38:29;;;;;;;;;;;18.50;70.80;;;;;;4755646;30;19974;-75
2022/06/06 09:41:03;;;;;;;;;;;18.50;70.80;;;;;;4755222;30;19983;-76
2022/06/06 09:43:35;;;;;;;;;;;18.40;70.80;;;;;;4755396;30;20255;-75
2022/06/06 09:46:19;;;;;;;;;;;18.50;70.90;;;;;;4754486;30;20350;-74
2022/06/06 09:49:03;;;;;;;;;;;18.50;71.00;;;;;;4745160;30;19934;-74
2022/06/06 09:51:47;;;;;;;;;;;18.50;71.00;;;;;;4755433;30;19926;-75
2022/06/06 10:00:30;;;;;;;;;;;18.50;70.90;;;;;;4754465;30;20246;-75
2022/06/06 10:03:16;;;;;;;;;;;18.50;70.90;;;;;;4754942;30;19925;-74
2022/06/06 10:05:56;;;;;;;;;;;18.40;70.80;;;;;;4755017;30;20357;-75
2022/06/06 10:08:21;;;;;;;;;;;18.50;70.80;;;;;;4740229;30;19926;-74
2022/06/06 10:11:06;;;;;;;;;;;18.40;70.70;;;;;;4755245;30;19937;-75
2022/06/06 10:13:45;;;;;;;;;;;18.40;70.60;;;;;;4754714;30;20400;-77
2022/06/06 10:16:26;;;;;;;;;;;18.40;70.60;;;;;;4755282;30;19930;-75
2022/06/06 10:18:58;;;;;;;;;;;18.40;70.50;;;;;;4755434;30;19926;-74
2022/06/06 10:21:42;;;;;;;;;;;18.40;70.50;;;;;;4755349;30;19930;-76
2022/06/06 10:24:27;;;;;;;;;;;18.40;70.50;;;;;;4750907;30;20017;-76
2022/06/06 10:27:04;;;;;;;;;;;18.40;70.40;;;;;;4748746;30;19926;-74
2022/06/06 10:32:39;;;;;;;;;;;18.40;70.30;;;;;;4754058;30;19934;-76
2022/06/06 10:35:24;;;;;;;;;;;18.40;70.30;;;;;;4754893;30;19933;-74
2022/06/06 10:37:53;;;;;;;;;;;18.40;70.30;;;;;;4738452;30;19926;-74
2022/06/06 10:40:25;;;;;;;;;;;18.40;70.20;;;;;;4754590;30;20346;-73
2022/06/06 10:42:58;;;;;;;;;;;18.40;70.10;;;;;;4754403;30;19983;-75
2022/06/06 10:45:30;;;;;;;;;;;18.40;70.10;;;;;;4754948;30;20334;-74
2022/06/06 10:48:14;;;;;;;;;;;18.40;70.00;;;;;;4754380;30;19974;-74
2022/06/06 10:51:36;;;;;;;;;;;18.40;70.10;;;;;;4753938;30;19937;-74
2022/06/06 10:53:28;;;;;;;;;;;18.30;69.90;;;;;;4752857;30;20368;-75
2022/06/06 10:56:10;;;;;;;;;;;18.40;70.00;;;;;;4753850;30;19926;-75
2022/06/06 10:58:48;;;;;;;;;;;18.30;69.90;;;;;;4747214;30;19926;-74
2022/06/06 11:01:25;;;;;;;;;;;18.30;69.80;;;;;;4754002;30;20102;-73
2022/06/06 11:03:54;;;;;;;;;;;18.30;69.90;;;;;;4753696;30;19984;-74
2022/06/06 11:06:25;;;;;;;;;;;18.30;70.00;;;;;;4737020;30;20281;-74
2022/06/06 11:09:10;;;;;;;;;;;18.30;70.00;;;;;;4753410;30;20293;-75
2022/06/06 11:11:55;;;;;;;;;;;18.40;70.10;;;;;;4751547;30;19926;-76
2022/06/06 11:14:32;;;;;;;;;;;18.30;70.10;;;;;;4753181;30;20260;-74
2022/06/06 11:17:16;;;;;;;;;;;18.30;70.10;;;;;;4754468;30;19928;-75
2022/06/06 11:19:47;;;;;;;;;;;18.30;70.20;;;;;;4753996;30;19995;-74
2022/06/06 11:22:22;;;;;;;;;;;18.30;70.30;;;;;;4738479;30;20255;-74
2022/06/06 11:25:04;;;;;;;;;;;18.30;70.40;;;;;;4752535;30;19934;-74
2022/06/06 11:27:33;;;;;;;;;;;18.30;70.50;;;;;;4751979;30;19937;-74
2022/06/06 11:30:05;;;;;;;;;;;18.40;70.50;;;;;;4725188;30;20003;-74
2022/06/06 11:32:49;;;;;;;;;;;18.40;70.50;;;;;;4747094;30;19930;-73
2022/06/06 11:35:14;;;;;;;;;;;18.40;70.50;;;;;;4726360;30;19927;-73
2022/06/06 11:37:48;;;;;;;;;;;18.40;70.50;;;;;;4735713;30;19933;-73
2022/06/06 11:40:32;;;;;;;;;;;18.50;70.60;;;;;;4726169;30;19926;-73
2022/06/06 11:42:57;;;;;;;;;;;18.50;70.60;;;;;;4745530;30;19927;-73
2022/06/06 11:45:23;;;;;;;;;;;18.50;70.60;;;;;;4738957;30;20037;-73
2022/06/06 11:47:51;;;;;;;;;;;18.50;70.60;;;;;;4739572;30;20349;-75
2022/06/06 11:50:36;;;;;;;;;;;18.60;70.70;;;;;;4748204;30;19937;-74
2022/06/06 11:53:04;;;;;;;;;;;18.60;70.70;;;;;;4748184;30;19926;-72
2022/06/06 11:55:30;;;;;;;;;;;18.60;70.70;;;;;;4739550;30;19983;-73
2022/06/06 11:58:02;;;;;;;;;;;18.60;70.70;;;;;;4750869;30;19927;-72
2022/06/06 12:00:46;;;;;;;;;;;18.60;70.70;;;;;;4743721;30;19999;-73
2022/06/06 12:03:30;;;;;;;;;;;18.60;70.70;;;;;;4726058;30;19926;-72
2022/06/06 12:06:16;;;;;;;;;;;18.60;70.80;;;;;;4742954;30;19926;-73
2022/06/06 12:08:45;;;;;;;;;;;18.60;70.80;;;;;;4731217;30;19927;-74
2022/06/06 12:11:30;;;;;;;;;;;18.60;70.80;;;;;;4744146;30;19926;-74
2022/06/06 12:13:58;;;;;;;;;;;18.60;70.80;;;;;;4742823;30;19934;-74
2022/06/06 12:16:24;;;;;;;;;;;18.70;70.90;;;;;;4750476;30;19927;-74
2022/06/06 12:18:51;;;;;;;;;;;18.60;70.90;;;;;;4734010;30;20362;-76
2022/06/06 12:21:28;;;;;;;;;;;18.70;70.90;;;;;;4744038;30;20013;-76
2022/06/06 14:33:49;;;;;;;;;;;19.00;71.60;;;;;;5362553;24;19964;-76
2022/06/06 14:36:20;;;;;;;;;;;19.00;71.50;;;;;;4825970;29;19997;-77
2022/06/06 14:38:52;;;;;;;;;;;19.00;72.10;;;;;;4785028;29;19921;-77
2022/06/06 14:41:18;;;;;;;;;;;19.00;72.10;;;;;;4800952;29;19924;-75
2022/06/06 14:43:50;;;;;;;;;;;19.00;72.30;;;;;;4798299;29;19932;-78
2022/06/06 14:46:17;;;;;;;;;;;19.00;72.60;;;;;;4824587;29;19921;-76
2022/06/06 14:48:44;;;;;;;;;;;19.00;73.50;;;;;;4792494;29;19924;-73
2022/06/06 14:51:14;;;;;;;;;;;19.00;74.50;;;;;;4808657;29;19960;-73
2022/06/06 14:53:43;;;;;;;;;;;19.00;76.60;;;;;;4808296;29;19968;-76
2022/06/06 14:56:11;;;;;;;;;;;19.10;74.60;;;;;;4813527;29;19946;-74
2022/06/06 14:58:37;;;;;;;;;;;19.10;74.00;;;;;;4811896;29;19924;-76
2022/06/06 15:01:05;;;;;;;;;;;19.10;74.00;;;;;;4819628;29;19925;-77
2022/06/06 15:03:41;;;;;;;;;;;19.10;73.30;;;;;;4818740;29;19940;-79
2022/06/06 15:06:13;;;;;;;;;;;19.10;73.30;;;;;;4811448;29;19994;-75
2022/06/06 15:08:46;;;;;;;;;;;19.10;73.10;;;;;;4796562;29;19924;-75
2022/06/06 15:11:14;;;;;;;;;;;19.20;73.00;;;;;;4826247;29;20382;-77
2022/06/06 15:13:44;;;;;;;;;;;19.10;72.80;;;;;;4814756;29;19932;-75
2022/06/06 15:16:11;;;;;;;;;;;19.10;72.60;;;;;;4822770;29;20477;-75
2022/06/06 15:18:40;;;;;;;;;;;19.10;72.40;;;;;;4811481;29;19936;-81
2022/06/06 15:21:06;;;;;;;;;;;19.10;72.60;;;;;;4818535;29;19975;-78
2022/06/06 15:23:35;;;;;;;;;;;19.10;72.70;;;;;;4787671;29;19956;-80
2022/06/06 15:26:05;;;;;;;;;;;19.10;72.40;;;;;;4812162;29;20353;-77
2022/06/06 15:28:40;;;;;;;;;;;19.10;72.20;;;;;;4823048;29;19925;-80
